createdAt,value
2022-10-05T00:00:23.029Z,11.17
2022-10-05T00:02:52.377Z,8.97
2022-10-05T00:05:21.933Z,12.50
2022-10-05T00:07:49.458Z,9.10
2022-10-05T00:10:19.008Z,12.90
2022-10-05T00:12:47.031Z,11.50
2022-10-05T00:15:15.231Z,12.70
2022-10-05T00:17:42.962Z,10.20
2022-10-05T00:20:18.179Z,12.10
2022-10-05T00:22:45.332Z,8.93
2022-10-05T00:25:22.744Z,9.00
2022-10-05T00:27:57.259Z,8.77
2022-10-05T00:30:24.924Z,10.17
2022-10-05T00:32:54.920Z,8.57
2022-10-05T00:35:25.978Z,9.97
2022-10-05T00:37:54.187Z,8.50
2022-10-05T00:40:36.862Z,10.37
2022-10-05T00:43:12.536Z,10.00
2022-10-05T00:45:46.884Z,10.03
2022-10-05T00:48:26.274Z,8.80
2022-10-05T00:51:02.647Z,9.53
2022-10-05T00:53:35.992Z,12.70
2022-10-05T00:56:21.742Z,8.37
2022-10-05T00:59:02.388Z,10.20
2022-10-05T01:01:35.003Z,9.03
2022-10-05T01:04:20.574Z,10.70
2022-10-05T01:07:05.878Z,8.17
2022-10-05T01:09:45.247Z,8.50
2022-10-05T01:12:31.400Z,8.07
2022-10-05T01:15:17.400Z,9.53
2022-10-05T01:17:48.917Z,12.60
2022-10-05T01:20:22.201Z,10.20
2022-10-05T01:23:08.643Z,8.40
2022-10-05T01:25:35.846Z,10.53
2022-10-05T01:28:04.805Z,9.40
2022-10-05T01:30:37.149Z,14.73
2022-10-05T01:33:15.300Z,12.00
2022-10-05T01:36:05.491Z,8.20
2022-10-05T01:38:48.103Z,10.47
2022-10-05T01:41:15.230Z,9.23
2022-10-05T01:43:51.415Z,9.77
2022-10-05T01:46:27.672Z,8.93
2022-10-05T01:48:54.808Z,9.10
2022-10-05T01:51:34.147Z,10.00
2022-10-05T01:54:11.374Z,12.43
2022-10-05T01:56:56.660Z,11.93
2022-10-05T01:59:42.395Z,11.47
2022-10-05T02:02:14.929Z,8.73
2022-10-05T02:05:03.575Z,12.37
2022-10-05T02:07:34.614Z,13.53
2022-10-05T02:10:05.458Z,10.27
2022-10-05T02:12:35.367Z,10.40
2022-10-05T02:15:07.284Z,13.93
2022-10-05T02:17:41.057Z,11.43
2022-10-05T02:20:09.961Z,11.00
2022-10-05T02:22:46.582Z,10.67
2022-10-05T02:25:18.491Z,12.57
2022-10-05T02:27:50.019Z,10.00
2022-10-05T02:30:18.178Z,12.93
2022-10-05T02:32:57.804Z,13.20
2022-10-05T02:35:25.092Z,12.73
2022-10-05T02:38:18.650Z,10.60
2022-10-05T02:40:48.566Z,10.43
2022-10-05T02:43:18.604Z,11.37
2022-10-05T02:45:45.754Z,13.57
2022-10-05T02:48:21.494Z,10.20
2022-10-05T02:51:07.449Z,10.97
2022-10-05T02:53:40.066Z,14.50
2022-10-05T02:56:07.229Z,10.50
2022-10-05T02:58:40.118Z,16.50
2022-10-05T03:01:14.950Z,11.60
2022-10-05T03:03:48.523Z,12.57
2022-10-05T03:06:25.981Z,9.90
2022-10-05T03:08:53.129Z,12.17
2022-10-05T03:11:26.856Z,10.90
2022-10-05T03:14:00.162Z,10.90
2022-10-05T03:16:46.065Z,10.63
2022-10-05T03:19:16.465Z,12.37
2022-10-05T03:21:46.422Z,13.90
2022-10-05T03:24:13.867Z,12.87
2022-10-05T03:27:01.770Z,10.67
2022-10-05T03:29:28.889Z,14.30
2022-10-05T03:32:08.562Z,10.97
2022-10-05T03:34:54.167Z,11.80
2022-10-05T03:37:28.919Z,10.47
2022-10-05T03:40:04.074Z,10.03
2022-10-05T03:42:37.498Z,16.67
2022-10-05T03:45:13.752Z,14.70
2022-10-05T03:47:46.118Z,10.03
2022-10-05T03:50:16.070Z,13.00
2022-10-05T03:52:44.204Z,11.10
2022-10-05T03:55:11.337Z,10.77
2022-10-05T03:57:39.628Z,11.97
2022-10-05T04:00:07.218Z,11.03
2022-10-05T04:02:37.710Z,17.77
2022-10-05T04:05:08.008Z,9.30
2022-10-05T04:07:47.519Z,13.20
2022-10-05T04:10:21.933Z,12.60
2022-10-05T04:12:51.551Z,10.13
2022-10-05T04:15:19.158Z,10.57
2022-10-05T04:17:47.846Z,10.07
2022-10-05T04:20:26.237Z,10.27
2022-10-05T04:23:11.575Z,9.93
2022-10-05T04:25:43.198Z,8.80
2022-10-05T04:28:32.903Z,11.87
2022-10-05T04:31:02.253Z,15.33
2022-10-05T04:33:29.479Z,11.53
2022-10-05T04:36:11.999Z,9.57
2022-10-05T04:38:44.779Z,8.83
2022-10-05T04:41:30.962Z,12.47
2022-10-05T04:44:16.883Z,12.13
2022-10-05T04:47:01.347Z,10.30
2022-10-05T04:49:47.359Z,13.70
2022-10-05T04:52:14.597Z,11.77
2022-10-05T04:54:47.697Z,11.20
2022-10-05T04:57:18.638Z,10.10
2022-10-05T04:59:45.771Z,10.80
2022-10-05T05:02:22.082Z,11.57
2022-10-05T05:05:07.503Z,10.53
2022-10-05T05:07:34.661Z,14.80
2022-10-05T05:10:01.813Z,12.47
2022-10-05T05:13:04.541Z,12.20
2022-10-05T05:15:37.563Z,10.73
2022-10-05T05:18:17.253Z,10.77
2022-10-05T05:21:10.521Z,12.80
2022-10-05T05:23:58.464Z,10.37
2022-10-05T05:26:41.347Z,12.00
2022-10-05T05:29:17.774Z,11.87
2022-10-05T05:31:54.980Z,13.43
2022-10-05T05:34:45.192Z,9.77
2022-10-05T05:37:30.049Z,12.97
2022-10-05T05:40:02.957Z,9.83
2022-10-05T05:42:32.866Z,11.20
2022-10-05T05:45:04.155Z,12.57
2022-10-05T05:47:37.913Z,11.27
2022-10-05T05:50:07.343Z,12.23
2022-10-05T05:52:43.796Z,10.40
2022-10-05T05:55:18.360Z,9.53
2022-10-05T05:57:53.999Z,9.83
2022-10-05T06:00:22.698Z,13.03
2022-10-05T06:03:10.821Z,8.77
2022-10-05T06:05:52.637Z,11.13
2022-10-05T06:08:42.892Z,8.67
2022-10-05T06:11:25.059Z,10.67
2022-10-05T06:13:52.930Z,11.10
2022-10-05T06:16:23.662Z,11.90
2022-10-05T06:19:00.035Z,9.07
2022-10-05T06:21:27.184Z,11.93
2022-10-05T06:24:02.781Z,13.57
2022-10-05T06:26:41.921Z,17.90
2022-10-05T06:29:18.767Z,9.43
2022-10-05T06:31:49.421Z,9.90
2022-10-05T06:34:40.609Z,11.33
2022-10-05T06:37:18.073Z,8.03
2022-10-05T06:39:51.220Z,9.23
2022-10-05T06:42:27.733Z,16.73
2022-10-05T06:44:58.017Z,8.40
2022-10-05T06:47:28.041Z,8.27
2022-10-05T06:50:19.507Z,10.10
2022-10-05T06:52:54.715Z,9.73
2022-10-05T06:55:39.971Z,7.43
2022-10-05T06:58:07.153Z,16.40
2022-10-05T07:00:39.903Z,11.47
2022-10-05T07:03:26.190Z,8.80
2022-10-05T07:05:57.497Z,10.67
2022-10-05T07:08:36.713Z,7.83
2022-10-05T07:11:13.007Z,10.83
2022-10-05T07:13:58.619Z,9.33
2022-10-05T07:16:27.606Z,8.97
2022-10-05T07:18:54.884Z,9.40
2022-10-05T07:21:34.468Z,10.90
2022-10-05T07:24:05.601Z,9.40
2022-10-05T07:26:43.473Z,8.17
2022-10-05T07:29:31.053Z,9.07
2022-10-05T07:32:17.017Z,9.67
2022-10-05T07:34:56.313Z,9.03
2022-10-05T07:37:57.489Z,8.47
2022-10-05T07:40:38.046Z,10.00
2022-10-05T07:43:17.183Z,9.73
2022-10-05T07:45:44.338Z,7.13
2022-10-05T07:48:29.114Z,8.47
2022-10-05T07:51:16.560Z,8.47
2022-10-05T07:53:48.852Z,8.73
2022-10-05T07:56:24.141Z,11.53
2022-10-05T07:59:03.167Z,7.90
2022-10-05T08:01:35.984Z,11.20
2022-10-05T08:04:18.292Z,11.10
2022-10-05T08:06:48.346Z,9.30
2022-10-05T08:09:28.276Z,8.90
2022-10-05T08:12:01.650Z,7.97
2022-10-05T08:14:47.849Z,7.20
2022-10-05T08:17:25.469Z,8.43
2022-10-05T08:20:03.851Z,12.07
2022-10-05T08:22:35.665Z,7.38
2022-10-05T08:25:03.991Z,8.00
2022-10-05T08:27:39.736Z,8.93
2022-10-05T08:30:11.942Z,10.02
2022-10-05T08:32:42.046Z,6.32
2022-10-05T08:35:12.321Z,9.20
2022-10-05T08:37:43.965Z,5.72
2022-10-05T08:40:11.784Z,7.72
2022-10-05T08:42:57.375Z,5.88
2022-10-05T08:45:24.616Z,6.80
2022-10-05T08:48:11.082Z,7.35
2022-10-05T08:50:50.227Z,7.20
2022-10-05T08:53:23.643Z,12.35
2022-10-05T08:56:28.470Z,6.95
2022-10-05T08:58:59.126Z,6.15
2022-10-05T09:01:45.342Z,5.45
2022-10-05T09:04:32.532Z,6.68
2022-10-05T09:06:59.666Z,5.53
2022-10-05T09:09:26.842Z,6.03
2022-10-05T09:12:12.765Z,7.10
2022-10-05T09:15:01.348Z,4.55
2022-10-05T09:18:04.682Z,12.10
2022-10-05T09:20:43.892Z,16.52
2022-10-05T09:23:19.338Z,13.23
2022-10-05T09:25:50.790Z,7.20
2022-10-05T09:28:38.576Z,5.45
2022-10-05T09:31:18.108Z,9.15
2022-10-05T09:34:01.800Z,7.50
2022-10-05T09:36:32.634Z,7.32
2022-10-05T09:39:02.908Z,7.53
2022-10-05T09:41:30.081Z,8.60
2022-10-05T09:44:12.340Z,8.60
2022-10-05T09:46:49.446Z,4.30
2022-10-05T09:49:22.984Z,4.70
2022-10-05T09:52:02.359Z,4.40
2022-10-05T09:54:29.582Z,7.35
2022-10-05T09:56:56.756Z,8.13
2022-10-05T09:59:42.919Z,7.13
2022-10-05T10:02:24.098Z,5.70
2022-10-05T10:04:51.368Z,7.07
2022-10-05T10:07:38.816Z,5.18
2022-10-05T10:10:24.169Z,5.68
2022-10-05T10:12:54.145Z,7.13
2022-10-05T10:15:40.252Z,5.30
2022-10-05T10:18:10.621Z,10.27
2022-10-05T10:20:56.406Z,6.93
2022-10-05T10:23:42.416Z,5.53
2022-10-05T10:26:18.943Z,3.45
2022-10-05T10:28:58.594Z,3.50
2022-10-05T10:31:34.796Z,6.88
2022-10-05T10:34:14.524Z,3.85
2022-10-05T10:36:41.696Z,3.50
2022-10-05T10:39:13.359Z,5.30
2022-10-05T10:41:49.722Z,3.58
2022-10-05T10:44:49.341Z,3.17
2022-10-05T10:47:16.577Z,5.00
2022-10-05T10:49:52.748Z,2.25
2022-10-05T10:52:25.939Z,3.90
2022-10-05T10:54:54.096Z,6.00
2022-10-05T10:57:38.455Z,2.30
2022-10-05T11:00:08.474Z,5.82
2022-10-05T11:02:57.062Z,2.63
2022-10-05T11:05:29.546Z,8.45
2022-10-05T11:07:59.931Z,3.42
2022-10-05T11:10:47.683Z,3.60
2022-10-05T11:13:27.470Z,2.00
2022-10-05T11:16:03.703Z,3.15
2022-10-05T11:18:46.946Z,1.75
2022-10-05T11:21:36.774Z,3.17
2022-10-05T11:24:27.355Z,7.38
2022-10-05T11:27:03.963Z,2.30
2022-10-05T11:29:51.421Z,2.88
2022-10-05T11:32:21.567Z,2.47
2022-10-05T11:34:57.663Z,8.68
2022-10-05T11:37:27.811Z,1.77
2022-10-05T11:40:14.071Z,2.65
2022-10-05T11:42:59.747Z,6.07
2022-10-05T11:46:01.855Z,3.30
2022-10-05T11:48:40.825Z,6.70
2022-10-05T11:51:29.176Z,3.20
2022-10-05T11:54:02.270Z,3.40
2022-10-05T11:59:13.798Z,1.75
2022-10-05T12:01:49.821Z,3.63
2022-10-05T12:04:23.079Z,4.93
2022-10-05T12:06:56.406Z,5.95
2022-10-05T12:10:05.669Z,2.58
2022-10-05T12:12:38.890Z,4.03
2022-10-05T12:15:19.720Z,3.60
2022-10-05T12:18:09.117Z,2.65
2022-10-05T12:20:45.937Z,3.55
2022-10-05T12:23:25.821Z,2.38
2022-10-05T12:25:58.688Z,5.95
2022-10-05T12:28:33.992Z,4.47
2022-10-05T12:31:16.314Z,6.10
2022-10-05T12:34:04.531Z,3.50
2022-10-05T12:37:04.015Z,5.07
2022-10-05T12:39:31.481Z,3.00
2022-10-05T12:42:19.319Z,2.63
2022-10-05T12:44:52.489Z,3.83
2022-10-05T12:47:44.128Z,3.38
2022-10-05T12:50:37.464Z,2.47
2022-10-05T12:53:36.045Z,4.50
2022-10-05T12:56:29.058Z,3.38
2022-10-05T12:59:29.022Z,3.70
2022-10-05T13:02:19.129Z,2.40
2022-10-05T13:05:04.339Z,2.05
2022-10-05T13:07:38.531Z,4.90
2022-10-05T13:10:24.820Z,4.40
2022-10-05T13:13:00.911Z,3.40
2022-10-05T13:16:04.739Z,2.05
2022-10-05T13:19:05.313Z,3.28
2022-10-05T13:21:38.811Z,1.88
2022-10-05T13:24:23.482Z,2.47
2022-10-05T13:26:59.243Z,1.85
2022-10-05T13:29:31.105Z,1.80
2022-10-05T13:32:03.630Z,2.28
2022-10-05T13:34:54.557Z,2.03
2022-10-05T13:37:27.334Z,2.40
2022-10-05T13:40:23.267Z,2.10
2022-10-05T13:43:24.080Z,5.78
2022-10-05T13:46:09.005Z,7.22
2022-10-05T13:49:05.254Z,3.60
2022-10-05T13:51:45.748Z,1.65
2022-10-05T13:54:36.876Z,1.90
2022-10-05T13:57:29.953Z,3.63
2022-10-05T14:00:14.643Z,1.58
2022-10-05T14:02:45.323Z,1.50
2022-10-05T14:05:17.173Z,2.28
2022-10-05T14:07:55.226Z,1.95
2022-10-05T14:10:40.858Z,4.53
2022-10-05T14:13:44.280Z,2.63
2022-10-05T14:16:24.027Z,1.45
2022-10-05T14:19:06.005Z,1.40
2022-10-05T14:21:47.393Z,2.53
2022-10-05T14:24:44.191Z,5.30
2022-10-05T14:27:28.322Z,3.28
2022-10-05T14:29:57.411Z,1.67
2022-10-05T14:32:27.099Z,3.83
2022-10-05T14:35:05.271Z,2.78
2022-10-05T14:38:02.456Z,2.17
2022-10-05T14:40:31.070Z,3.78
2022-10-05T14:43:16.341Z,1.88
2022-10-05T14:46:05.618Z,3.90
2022-10-05T14:48:43.426Z,4.55
2022-10-05T14:51:28.269Z,3.60
2022-10-05T14:53:59.923Z,3.28
2022-10-05T14:56:41.602Z,3.38
2022-10-05T14:59:25.758Z,4.60
2022-10-05T15:02:12.720Z,5.05
2022-10-05T15:04:55.992Z,3.00
2022-10-05T15:07:32.941Z,6.03
2022-10-05T15:10:02.740Z,4.53
2022-10-05T15:12:40.068Z,5.22
2022-10-05T15:15:25.426Z,5.05
2022-10-05T15:18:05.785Z,2.58
2022-10-05T15:20:43.786Z,2.92
2022-10-05T15:23:24.833Z,4.10
2022-10-05T15:26:29.304Z,2.58
2022-10-05T15:29:26.193Z,3.25
2022-10-05T15:32:01.966Z,4.68
2022-10-05T15:34:29.108Z,3.42
2022-10-05T15:37:23.812Z,3.75
2022-10-05T15:39:57.850Z,3.55
2022-10-05T15:42:36.471Z,4.10
2022-10-05T15:45:23.372Z,2.25
2022-10-05T15:48:20.192Z,3.15
2022-10-05T15:50:59.055Z,4.43
2022-10-05T15:53:37.308Z,3.67
2022-10-05T15:56:26.538Z,1.60
2022-10-05T15:59:06.959Z,2.00
2022-10-05T16:01:33.867Z,3.08
2022-10-05T16:04:25.065Z,2.90
2022-10-05T16:07:15.768Z,5.07
2022-10-05T16:10:21.488Z,4.07
2022-10-05T16:13:12.514Z,8.80
2022-10-05T16:16:17.505Z,5.63
2022-10-05T16:19:07.931Z,7.20
2022-10-05T16:21:46.337Z,3.08
2022-10-05T16:24:22.151Z,3.85
2022-10-05T16:26:59.493Z,3.33
2022-10-05T16:30:01.356Z,4.65
2022-10-05T16:32:51.059Z,2.00
2022-10-05T16:35:44.962Z,4.45
2022-10-05T16:39:10.111Z,6.32
2022-10-05T16:41:44.386Z,10.80
2022-10-05T16:44:30.031Z,6.82
2022-10-05T16:47:27.538Z,3.08
2022-10-05T16:50:01.301Z,6.82
2022-10-05T16:52:32.935Z,5.63
2022-10-05T16:55:03.975Z,9.23
2022-10-05T16:57:35.278Z,7.88
2022-10-05T17:00:16.071Z,11.00
2022-10-05T17:02:47.734Z,7.88
2022-10-05T17:05:18.167Z,12.45
2022-10-05T17:08:03.902Z,13.95
2022-10-05T17:10:46.163Z,4.97
2022-10-05T17:13:24.179Z,5.43
2022-10-05T17:16:01.342Z,7.65
2022-10-05T17:18:31.415Z,7.75
2022-10-05T17:21:16.137Z,5.97
2022-10-05T17:23:53.486Z,5.82
2022-10-05T17:26:23.712Z,6.38
2022-10-05T17:29:09.406Z,4.50
2022-10-05T17:31:55.103Z,4.38
2022-10-05T17:34:26.518Z,4.03
2022-10-05T17:37:16.111Z,6.55
2022-10-05T17:39:48.199Z,3.78
2022-10-05T17:42:30.291Z,6.30
2022-10-05T17:45:20.760Z,3.78
2022-10-05T17:48:00.708Z,3.13
2022-10-05T17:51:01.587Z,5.15
2022-10-05T17:53:53.414Z,5.85
2022-10-05T17:56:22.149Z,8.07
2022-10-05T17:58:55.397Z,4.97
2022-10-05T18:01:39.289Z,3.15
2022-10-05T18:04:12.437Z,4.68
2022-10-05T18:06:39.650Z,3.40
2022-10-05T18:09:22.420Z,4.30
2022-10-05T18:12:08.101Z,4.07
2022-10-05T18:14:56.491Z,4.32
2022-10-05T18:17:43.861Z,4.20
2022-10-05T18:20:20.996Z,4.75
2022-10-05T18:22:50.858Z,4.00
2022-10-05T18:25:27.354Z,7.72
2022-10-05T18:28:03.795Z,3.10
2022-10-05T18:30:35.180Z,4.57
2022-10-05T18:33:08.179Z,6.55
2022-10-05T18:35:54.222Z,5.72
2022-10-05T18:38:27.865Z,10.25
2022-10-05T18:41:14.536Z,4.03
2022-10-05T18:43:51.074Z,7.55
2022-10-05T18:46:24.394Z,8.10
2022-10-05T18:49:10.672Z,4.97
2022-10-05T18:51:45.518Z,9.30
2022-10-05T18:54:26.216Z,7.97
2022-10-05T18:56:53.794Z,8.65
2022-10-05T18:59:26.767Z,5.30
2022-10-05T19:02:24.661Z,8.85
2022-10-05T19:05:29.326Z,4.95
2022-10-05T19:07:59.348Z,6.95
2022-10-05T19:10:31.819Z,8.25
2022-10-05T19:13:02.032Z,9.68
2022-10-05T19:15:35.127Z,9.85
2022-10-05T19:18:05.484Z,12.32
2022-10-05T19:20:37.296Z,4.47
2022-10-05T19:23:16.586Z,6.32
2022-10-05T19:25:48.314Z,3.20
2022-10-05T19:28:25.645Z,3.25
2022-10-05T19:31:09.754Z,3.85
2022-10-05T19:33:43.110Z,2.30
2022-10-05T19:36:13.333Z,3.88
2022-10-05T19:38:43.261Z,3.70
2022-10-05T19:41:43.178Z,3.30
2022-10-05T19:44:13.351Z,4.50
2022-10-05T19:46:59.489Z,4.72
2022-10-05T19:49:50.167Z,5.45
2022-10-05T19:52:22.239Z,5.82
2022-10-05T19:55:02.422Z,7.25
2022-10-05T19:57:29.760Z,8.38
2022-10-05T19:59:58.115Z,8.93
2022-10-05T20:02:28.910Z,9.80
2022-10-05T20:05:06.153Z,5.95
2022-10-05T20:07:34.862Z,8.73
2022-10-05T20:10:20.950Z,7.22
2022-10-05T20:13:15.036Z,5.63
2022-10-05T20:16:21.495Z,6.40
2022-10-05T20:19:07.977Z,6.32
2022-10-05T20:21:41.129Z,6.63
2022-10-05T20:24:08.348Z,8.15
2022-10-05T20:27:02.276Z,6.00
2022-10-05T20:29:30.413Z,3.70
2022-10-05T20:31:58.693Z,4.97
2022-10-05T20:34:25.958Z,6.25
2022-10-05T20:36:53.238Z,4.82
2022-10-05T20:39:21.419Z,7.90
2022-10-05T20:41:48.776Z,6.93
2022-10-05T20:44:16.097Z,7.05
2022-10-05T20:46:43.599Z,5.32
2022-10-05T20:49:13.075Z,3.28
2022-10-05T20:51:42.861Z,2.10
2022-10-05T20:54:11.147Z,3.78
2022-10-05T20:56:38.395Z,4.85
2022-10-05T20:59:05.565Z,2.38
2022-10-05T21:01:34.254Z,5.93
2022-10-05T21:04:02.699Z,2.55
2022-10-05T21:06:29.985Z,3.97
2022-10-05T21:08:57.243Z,2.75
2022-10-05T21:11:24.552Z,4.18
2022-10-05T21:13:53.668Z,2.80
2022-10-05T21:16:21.044Z,5.88
2022-10-05T21:18:49.103Z,2.95
2022-10-05T21:21:19.382Z,6.13
2022-10-05T21:23:47.515Z,3.97
2022-10-05T21:26:15.447Z,4.90
2022-10-05T21:28:43.004Z,7.85
2022-10-05T21:31:10.738Z,3.38
2022-10-05T21:33:37.945Z,4.10
2022-10-05T21:36:04.891Z,4.28
2022-10-05T21:38:31.716Z,4.18
2022-10-05T21:40:58.597Z,14.30
2022-10-05T21:43:26.358Z,13.10
2022-10-05T21:45:55.337Z,4.70
2022-10-05T21:48:23.132Z,3.72
2022-10-05T21:50:49.987Z,3.95
2022-10-05T21:53:20.254Z,1.98
2022-10-05T21:55:49.537Z,13.00
2022-10-05T21:58:18.125Z,12.23
2022-10-05T22:00:45.062Z,9.07
2022-10-05T22:03:12.018Z,5.43
2022-10-05T22:05:38.916Z,2.90
2022-10-05T22:08:05.790Z,8.73
2022-10-05T22:10:33.658Z,8.30
2022-10-05T22:13:05.216Z,3.45
2022-10-05T22:15:32.872Z,11.73
2022-10-05T22:17:59.816Z,7.35
2022-10-05T22:20:27.563Z,20.95
2022-10-05T22:22:54.524Z,9.02
2022-10-05T22:25:22.397Z,10.48
2022-10-05T22:27:50.085Z,8.20
2022-10-05T22:30:17.527Z,3.42
2022-10-05T22:32:45.846Z,3.25
2022-10-05T22:35:12.772Z,3.90
2022-10-05T22:37:39.529Z,3.25
2022-10-05T22:40:08.327Z,3.85
2022-10-05T22:42:35.263Z,7.78
2022-10-05T22:45:02.066Z,10.35
2022-10-05T22:47:29.312Z,18.70
2022-10-05T22:49:56.523Z,14.00
2022-10-05T22:52:23.792Z,10.13
2022-10-05T22:54:50.924Z,4.13
2022-10-05T22:57:18.157Z,2.55
2022-10-05T22:59:45.325Z,0.95
2022-10-05T23:02:14.107Z,1.70
2022-10-05T23:04:41.385Z,4.17
2022-10-05T23:07:08.585Z,1.33
2022-10-05T23:09:35.356Z,3.10
2022-10-05T23:12:02.518Z,2.40
2022-10-05T23:14:30.785Z,0.53
2022-10-05T23:16:58.030Z,1.67
2022-10-05T23:19:25.219Z,2.20
2022-10-05T23:21:52.373Z,1.10
2022-10-05T23:24:19.541Z,0.70
2022-10-05T23:26:46.932Z,2.50
2022-10-05T23:29:14.128Z,2.77
2022-10-05T23:31:41.294Z,2.90
2022-10-05T23:34:08.465Z,4.10
2022-10-05T23:36:35.979Z,2.57
2022-10-05T23:39:03.171Z,1.83
2022-10-05T23:41:30.304Z,2.43
2022-10-05T23:43:57.456Z,2.33
2022-10-05T23:46:24.672Z,3.50
2022-10-05T23:48:53.261Z,2.23
2022-10-05T23:51:20.896Z,2.57
2022-10-05T23:53:48.165Z,1.70
2022-10-05T23:56:15.343Z,6.93
2022-10-05T23:58:42.625Z,2.00
